createdAt,value
2023-02-03T00:02:35.156Z,271.41
2023-02-03T00:07:35.053Z,268.34
2023-02-03T00:12:35.026Z,267.91
2023-02-03T00:17:34.943Z,264.28
2023-02-03T00:22:34.868Z,266.83
2023-02-03T00:27:34.784Z,267.26
2023-02-03T00:32:34.794Z,265.97
2023-02-03T00:37:34.666Z,263.02
2023-02-03T00:42:34.611Z,261.78
2023-02-03T00:47:34.494Z,260.95
2023-02-03T00:52:34.475Z,260.14
2023-02-03T00:57:34.377Z,261.78
2023-02-03T01:02:34.361Z,263.02
2023-02-03T01:07:43.749Z,262.81
2023-02-03T01:12:36.135Z,264.28
2023-02-03T01:17:36.107Z,261.78
2023-02-03T01:22:36.012Z,261.78
2023-02-03T01:27:36.072Z,260.95
2023-02-03T01:32:35.864Z,261.57
2023-02-03T01:37:35.811Z,264.28
2023-02-03T01:42:35.745Z,263.44
2023-02-03T01:47:35.687Z,267.69
2023-02-03T01:52:35.595Z,269.43
2023-02-03T01:57:35.544Z,272.08
2023-02-03T02:02:35.537Z,273.42
2023-02-03T02:07:35.435Z,273.88
2023-02-03T02:12:35.329Z,272.08
2023-02-03T02:17:35.283Z,268.99
2023-02-03T02:22:35.211Z,268.12
2023-02-03T02:27:35.156Z,264.91
2023-02-03T02:32:35.052Z,264.49
2023-02-03T02:37:35.028Z,262.81
2023-02-03T02:42:34.917Z,264.28
2023-02-03T02:47:34.932Z,263.02
2023-02-03T02:52:34.801Z,260.95
2023-02-03T02:57:34.751Z,260.95
2023-02-03T03:02:34.678Z,259.12
2023-02-03T03:07:34.629Z,261.78
2023-02-03T03:12:34.541Z,265.76
2023-02-03T03:17:34.468Z,273.65
2023-02-03T03:22:34.402Z,277.54
2023-02-03T03:27:34.396Z,279.65
2023-02-03T03:32:34.284Z,282.02
2023-02-03T03:37:34.229Z,287.15
2023-02-03T03:42:34.143Z,289.40
2023-02-03T03:47:34.105Z,292.21
2023-02-03T03:52:34.008Z,294.28
2023-02-03T03:57:33.954Z,294.28
2023-02-03T04:02:33.966Z,293.76
2023-02-03T04:07:33.813Z,289.91
2023-02-03T04:12:33.729Z,288.40
2023-02-03T04:17:33.688Z,285.42
2023-02-03T04:22:33.601Z,282.26
2023-02-03T04:27:33.554Z,279.88
2023-02-03T04:32:33.455Z,276.39
2023-02-03T04:37:33.423Z,274.56
2023-02-03T04:42:33.329Z,278.94
2023-02-03T04:47:33.243Z,285.18
2023-02-03T04:52:33.198Z,289.66
2023-02-03T04:57:33.161Z,290.67
2023-02-03T05:02:33.046Z,289.91
2023-02-03T05:07:33.022Z,290.93
2023-02-03T05:12:32.915Z,292.72
2023-02-03T05:17:52.459Z,293.24
2023-02-03T05:22:44.849Z,296.65
2023-02-03T05:27:44.821Z,293.24
2023-02-03T05:32:44.715Z,292.46
2023-02-03T05:37:44.626Z,295.33
2023-02-03T05:42:44.618Z,290.67
2023-02-03T05:47:44.496Z,288.90
2023-02-03T05:52:44.456Z,285.18
2023-02-03T05:57:44.449Z,286.41
2023-02-03T06:02:44.463Z,283.71
2023-02-03T06:07:44.232Z,278.94
2023-02-03T06:12:44.175Z,279.18
2023-02-03T06:17:44.106Z,280.83
2023-02-03T06:22:44.048Z,280.83
2023-02-03T06:27:43.978Z,284.93
2023-02-03T06:32:43.978Z,284.20
2023-02-03T06:37:43.847Z,281.79
2023-02-03T06:42:43.779Z,281.31
2023-02-03T06:47:43.720Z,280.36
2023-02-03T06:52:43.655Z,279.18
2023-02-03T06:57:43.577Z,287.65
2023-02-03T07:02:43.637Z,291.44
2023-02-03T07:07:43.441Z,294.80
2023-02-03T07:12:43.377Z,301.23
2023-02-03T07:17:43.292Z,311.70
2023-02-03T07:22:43.257Z,320.12
2023-02-03T07:27:43.204Z,322.92
2023-02-03T07:32:43.455Z,330.32
2023-02-03T07:37:43.062Z,338.75
2023-02-03T07:42:42.985Z,339.44
2023-02-03T07:47:42.879Z,336.68
2023-02-03T07:52:42.872Z,334.31
2023-02-03T07:57:42.771Z,329.99
2023-02-03T08:02:42.714Z,331.97
2023-02-03T08:07:42.641Z,330.97
2023-02-03T08:12:44.819Z,327.71
2023-02-03T08:17:42.525Z,324.82
2023-02-03T08:22:42.434Z,324.18
2023-02-03T08:27:42.420Z,322.92
2023-02-03T08:32:42.298Z,316.76
2023-02-03T08:37:42.224Z,313.46
2023-02-03T08:42:42.156Z,317.36
2023-02-03T08:47:42.102Z,322.92
2023-02-03T08:52:42.021Z,331.30
2023-02-03T08:57:41.962Z,336.68
2023-02-03T09:02:41.924Z,336.00
2023-02-03T09:07:41.825Z,343.30
2023-02-03T09:12:41.749Z,349.08
2023-02-03T09:17:41.692Z,353.55
2023-02-03T09:22:41.649Z,357.35
2023-02-03T09:27:41.577Z,368.46
2023-02-03T09:32:41.512Z,378.20
2023-02-03T09:37:41.450Z,381.62
2023-02-03T09:42:41.403Z,387.99
2023-02-03T09:47:41.307Z,390.01
2023-02-03T09:52:41.242Z,391.37
2023-02-03T09:57:41.165Z,394.80
2023-02-03T10:02:41.185Z,395.27
2023-02-03T10:07:41.014Z,390.01
2023-02-03T10:12:40.952Z,394.57
2023-02-03T10:17:40.892Z,399.01
2023-02-03T10:22:40.824Z,403.79
2023-02-03T10:27:40.817Z,404.03
2023-02-03T10:32:40.682Z,397.83
2023-02-03T10:37:40.610Z,390.69
2023-02-03T10:42:40.548Z,388.88
2023-02-03T10:47:40.572Z,387.32
2023-02-03T10:52:40.407Z,375.98
2023-02-03T10:57:40.423Z,368.46
2023-02-03T11:02:40.382Z,364.02
2023-02-03T11:07:40.228Z,367.65
2023-02-03T11:12:40.214Z,364.02
2023-02-03T11:17:40.106Z,372.18
2023-02-03T11:22:40.008Z,380.76
2023-02-03T11:27:40.019Z,382.70
2023-02-03T11:32:39.887Z,378.62
2023-02-03T11:37:39.847Z,375.55
2023-02-03T11:42:39.731Z,374.71
2023-02-03T11:47:39.756Z,372.60
2023-02-03T11:52:39.607Z,368.05
2023-02-03T11:57:39.560Z,361.64
2023-02-03T12:02:39.500Z,366.43
2023-02-03T12:07:39.420Z,369.70
2023-02-03T12:12:39.343Z,367.65
2023-02-03T12:17:39.282Z,359.68
2023-02-03T12:22:39.209Z,356.20
2023-02-03T12:27:39.390Z,355.82
2023-02-03T12:32:39.074Z,353.55
2023-02-03T12:37:39.501Z,348.71
2023-02-03T12:42:38.962Z,346.17
2023-02-03T12:47:38.872Z,352.79
2023-02-03T12:52:38.810Z,349.82
2023-02-03T12:57:38.749Z,350.19
2023-02-03T13:02:38.659Z,348.35
2023-02-03T13:07:38.652Z,348.71
2023-02-03T13:12:38.545Z,345.81
2023-02-03T13:17:38.499Z,350.19
2023-02-03T13:22:38.393Z,350.93
2023-02-03T13:27:38.402Z,352.79
2023-02-03T13:32:38.268Z,359.68
2023-02-03T13:37:38.259Z,362.43
2023-02-03T13:42:38.165Z,360.85
2023-02-03T13:47:38.102Z,363.22
2023-02-03T13:52:38.018Z,363.22
2023-02-03T13:57:37.938Z,368.46
2023-02-03T14:02:37.882Z,369.70
2023-02-03T14:07:37.853Z,369.28
2023-02-03T14:12:37.751Z,368.46
2023-02-03T14:17:37.701Z,368.46
2023-02-03T14:22:37.602Z,368.46
2023-02-03T14:27:37.579Z,366.43
2023-02-03T14:32:37.448Z,364.42
2023-02-03T14:37:37.454Z,364.82
2023-02-03T14:42:37.338Z,360.85
2023-02-03T14:47:37.287Z,362.03
2023-02-03T14:52:37.181Z,360.46
2023-02-03T14:57:37.148Z,354.68
2023-02-03T15:02:37.042Z,353.92
2023-02-03T15:07:36.979Z,350.19
2023-02-03T15:12:36.914Z,350.19
2023-02-03T15:17:36.920Z,349.45
2023-02-03T15:22:36.783Z,349.45
2023-02-03T15:27:36.808Z,350.19
2023-02-03T15:32:36.663Z,350.56
2023-02-03T15:37:36.579Z,349.82
2023-02-03T15:42:36.507Z,352.42
2023-02-03T15:47:36.471Z,347.26
2023-02-03T15:52:36.397Z,353.92
2023-02-03T15:57:36.330Z,354.30
2023-02-03T16:02:36.257Z,353.55
2023-02-03T16:07:36.193Z,354.68
2023-02-03T16:12:36.096Z,353.55
2023-02-03T16:17:36.070Z,349.45
2023-02-03T16:22:35.967Z,345.81
2023-02-03T16:27:35.934Z,342.24
2023-02-03T16:32:35.859Z,338.40
2023-02-03T16:37:35.845Z,334.65
2023-02-03T16:42:35.711Z,337.71
2023-02-03T16:47:35.680Z,338.40
2023-02-03T16:52:35.578Z,338.06
2023-02-03T16:57:35.621Z,339.09
2023-02-03T17:02:35.492Z,336.68
2023-02-03T17:07:35.421Z,342.24
2023-02-03T17:12:35.319Z,345.81
2023-02-03T17:17:35.268Z,342.24
2023-02-03T17:22:35.172Z,339.79
2023-02-03T17:27:35.123Z,336.68
2023-02-03T17:32:35.052Z,334.98
2023-02-03T17:37:34.995Z,334.65
2023-02-03T17:54:12.775Z,357.74
2023-02-03T17:59:12.677Z,358.51
2023-02-03T18:04:12.605Z,358.51
2023-02-03T18:09:12.532Z,363.22
2023-02-03T18:14:12.463Z,364.02
2023-02-03T18:19:12.394Z,360.46
2023-02-03T18:24:12.365Z,357.74
2023-02-03T18:29:12.250Z,353.55
2023-02-03T18:34:12.857Z,348.35
2023-02-03T18:39:12.760Z,350.19
2023-02-03T18:44:12.102Z,345.09
2023-02-03T18:49:12.015Z,340.48
2023-02-03T18:54:11.959Z,334.65
2023-02-03T18:59:11.904Z,330.64
2023-02-03T19:04:11.837Z,327.06
2023-02-03T19:09:11.739Z,325.77
2023-02-03T19:14:11.738Z,329.99
2023-02-03T19:19:11.625Z,333.97
2023-02-03T19:24:11.565Z,334.65
2023-02-03T19:29:11.614Z,335.66
2023-02-03T19:34:11.440Z,333.30
2023-02-03T19:39:11.369Z,336.00
2023-02-03T19:44:11.297Z,330.97
2023-02-03T19:49:11.228Z,332.30
2023-02-03T19:54:11.202Z,336.68
2023-02-03T19:59:11.121Z,341.89
2023-02-03T20:04:11.067Z,347.26
2023-02-03T20:09:10.962Z,349.45
2023-02-03T20:14:11.639Z,347.26
2023-02-03T20:19:10.852Z,347.62
2023-02-03T20:24:10.808Z,345.09
2023-02-03T20:29:10.727Z,350.19
2023-02-03T20:34:10.690Z,353.92
2023-02-03T20:39:10.589Z,356.58
2023-02-03T20:44:10.572Z,353.55
2023-02-03T20:49:10.451Z,351.30
2023-02-03T20:54:10.430Z,354.68
2023-02-03T20:59:10.338Z,355.82
2023-02-03T21:04:11.938Z,361.24
2023-02-03T21:09:10.179Z,355.06
2023-02-03T21:14:10.163Z,350.19
2023-02-03T21:19:10.086Z,347.62
2023-02-03T21:24:10.038Z,344.37
2023-02-03T21:29:09.967Z,345.81
2023-02-03T21:34:09.900Z,355.06
2023-02-03T21:39:09.792Z,355.44
2023-02-03T21:44:09.780Z,352.79
2023-02-03T21:49:09.679Z,350.93
2023-02-03T21:54:09.623Z,347.98
2023-02-03T21:59:09.542Z,352.42
2023-02-03T22:04:09.487Z,349.08
2023-02-03T22:09:09.422Z,340.14
2023-02-03T22:14:09.350Z,339.79
2023-02-03T22:19:09.264Z,342.24
2023-02-03T22:24:09.227Z,341.89
2023-02-03T22:29:09.220Z,337.71
2023-02-03T22:34:09.135Z,336.00
2023-02-03T22:39:09.005Z,335.32
2023-02-03T22:44:08.948Z,335.32
2023-02-03T22:49:08.884Z,333.30
2023-02-03T22:54:08.806Z,332.97
2023-02-03T22:59:08.768Z,330.64
2023-02-03T23:04:08.698Z,324.82
2023-02-03T23:09:08.600Z,322.61
2023-02-03T23:14:08.550Z,327.71
2023-02-03T23:19:08.482Z,322.29
2023-02-03T23:24:08.416Z,316.45
2023-02-03T23:29:08.355Z,309.08
2023-02-03T23:34:08.293Z,302.33
2023-02-03T23:39:08.193Z,303.43
2023-02-03T23:44:08.162Z,304.55
2023-02-03T23:49:08.102Z,306.51
2023-02-03T23:54:08.047Z,304.83
2023-02-03T23:59:07.962Z,303.71
